Time;durP1;ratioP1;P1;durP2;ratioP2;P2;SDS_P1;SDS_P2;PMS_P1;PMS_P2;Temp;Humidity;BMP_temperature;BMP_pressure;BME280_temperature;BME280_humidity;BME280_pressure;Samples;Min_cycle;Max_cycle;Signal;HPM_P1;HPM_P2
2023/04/25 00:02:25;;;;;;;6.10;4.20;;;9.30;99.90;;;;;;5074987;28;20024;-77
2023/04/25 00:04:51;;;;;;;5.30;4.28;;;9.30;99.90;;;;;;5076364;28;20462;-76
2023/04/25 00:07:17;;;;;;;8.75;5.63;;;9.30;99.90;;;;;;5076148;28;20085;-77
2023/04/25 00:09:43;;;;;;;5.70;5.03;;;9.30;99.90;;;;;;5074939;28;20119;-77
2023/04/25 00:12:08;;;;;;;6.53;4.53;;;9.30;99.90;;;;;;5076316;28;20021;-76
2023/04/25 00:14:35;;;;;;;8.63;5.00;;;9.20;99.90;;;;;;5076158;28;20096;-77
2023/04/25 00:17:02;;;;;;;6.57;4.95;;;9.20;99.90;;;;;;5076145;28;20100;-76
2023/04/25 00:19:28;;;;;;;7.28;4.50;;;9.20;99.90;;;;;;5074726;28;20027;-76
2023/04/25 00:21:55;;;;;;;7.40;4.90;;;9.20;99.90;;;;;;5074663;28;20020;-76
2023/04/25 00:24:20;;;;;;;8.13;6.10;;;9.20;99.90;;;;;;5076120;28;20466;-76
2023/04/25 00:26:46;;;;;;;7.97;5.50;;;9.30;99.90;;;;;;5075962;28;20031;-77
2023/04/25 00:29:12;;;;;;;9.00;6.45;;;9.20;99.90;;;;;;5075983;28;20439;-76
2023/04/25 00:31:37;;;;;;;9.60;6.25;;;9.20;99.90;;;;;;5075931;28;20017;-77
2023/04/25 00:34:03;;;;;;;8.00;5.97;;;9.10;99.90;;;;;;5075790;28;20123;-77
2023/04/25 00:36:28;;;;;;;9.32;6.53;;;9.20;99.90;;;;;;5075921;28;20024;-75
2023/04/25 00:38:54;;;;;;;10.32;6.65;;;9.10;99.90;;;;;;5074435;28;20021;-76
2023/04/25 00:41:20;;;;;;;7.55;6.25;;;9.20;99.90;;;;;;5075709;28;20028;-76
2023/04/25 00:43:47;;;;;;;8.68;6.85;;;9.20;99.90;;;;;;5075763;28;20019;-77
2023/04/25 00:46:12;;;;;;;8.82;6.35;;;9.20;99.90;;;;;;5074441;28;20135;-77
2023/04/25 00:48:38;;;;;;;7.80;5.72;;;9.10;99.90;;;;;;5074263;28;20501;-76
2023/04/25 00:51:04;;;;;;;8.40;6.35;;;9.20;99.90;;;;;;5074247;28;20020;-76
2023/04/25 00:53:32;;;;;;;7.43;5.90;;;9.20;99.90;;;;;;5075555;28;20474;-76
2023/04/25 00:55:58;;;;;;;7.43;5.82;;;9.20;99.90;;;;;;5075450;28;20026;-76
2023/04/25 00:58:24;;;;;;;7.97;6.53;;;9.20;99.90;;;;;;5074237;28;20017;-77
2023/04/25 01:00:51;;;;;;;7.18;5.85;;;9.30;99.90;;;;;;5075138;28;20024;-76
2023/04/25 01:03:19;;;;;;;7.00;5.75;;;9.30;99.90;;;;;;5074073;28;20016;-77
2023/04/25 01:05:46;;;;;;;7.65;6.03;;;9.30;99.90;;;;;;5075273;28;20448;-76
2023/04/25 01:08:12;;;;;;;6.75;5.78;;;9.30;99.90;;;;;;5075242;28;20536;-77
2023/04/25 01:10:38;;;;;;;8.15;6.05;;;9.30;99.90;;;;;;5075252;28;20428;-76
2023/04/25 01:13:04;;;;;;;8.73;6.22;;;9.30;99.90;;;;;;5073754;28;20025;-77
2023/04/25 01:15:30;;;;;;;7.85;6.22;;;9.30;99.90;;;;;;5075001;28;20066;-76
2023/04/25 01:17:56;;;;;;;7.47;6.57;;;9.30;99.90;;;;;;5074899;28;20056;-76
2023/04/25 01:20:22;;;;;;;8.15;6.18;;;9.30;99.90;;;;;;5074853;28;20033;-77
2023/04/25 01:22:50;;;;;;;8.52;6.32;;;9.30;99.90;;;;;;5074821;28;20020;-76
2023/04/25 01:25:16;;;;;;;8.80;6.93;;;9.20;99.90;;;;;;5073743;28;20025;-77
2023/04/25 01:27:42;;;;;;;10.05;6.50;;;9.20;99.90;;;;;;5073536;28;20177;-77
2023/04/25 01:30:08;;;;;;;10.10;6.25;;;9.20;99.90;;;;;;5073435;28;20044;-76
2023/04/25 01:32:38;;;;;;;13.43;7.55;;;9.20;99.90;;;;;;5072873;28;20063;-76
2023/04/25 01:35:10;;;;;;;12.15;7.75;;;9.20;99.90;;;;;;5073201;28;20385;-77
2023/04/25 01:37:40;;;;;;;;;;;9.10;99.90;;;;;;5073735;28;20048;-77
2023/04/25 01:40:07;;;;;;;8.82;6.40;;;9.10;99.90;;;;;;5074588;28;19912;-76
2023/04/25 01:42:33;;;;;;;6.88;5.38;;;9.10;99.90;;;;;;5074418;28;20058;-76
2023/04/25 01:44:59;;;;;;;9.27;6.10;;;9.10;99.90;;;;;;5073274;28;20020;-76
2023/04/25 01:47:25;;;;;;;7.97;6.63;;;9.10;99.90;;;;;;5074405;28;20474;-76
2023/04/25 01:49:51;;;;;;;8.13;7.00;;;9.10;99.90;;;;;;5073177;28;20070;-76
2023/04/25 01:52:16;;;;;;;10.25;6.45;;;9.10;99.90;;;;;;5074435;28;20078;-77
2023/04/25 01:54:44;;;;;;;7.60;6.65;;;9.10;99.90;;;;;;5073049;28;20028;-76
2023/04/25 01:57:11;;;;;;;6.93;6.15;;;9.20;99.90;;;;;;5074256;28;20020;-77
2023/04/25 01:59:37;;;;;;;7.85;6.35;;;9.20;99.90;;;;;;5072754;28;20424;-77
2023/04/25 02:02:03;;;;;;;6.40;5.22;;;9.20;99.90;;;;;;5074117;28;20033;-76
2023/04/25 02:04:30;;;;;;;8.18;6.72;;;9.10;99.90;;;;;;5074218;28;20028;-77
2023/04/25 02:06:55;;;;;;;6.22;5.63;;;9.10;99.90;;;;;;5072768;28;20394;-76
2023/04/25 02:09:21;;;;;;;10.20;7.78;;;9.00;99.90;;;;;;5073977;28;20028;-77
2023/04/25 02:11:47;;;;;;;7.70;6.75;;;9.10;99.90;;;;;;5072423;28;20038;-76
2023/04/25 02:14:12;;;;;;;7.90;6.78;;;9.10;99.90;;;;;;5073989;28;20500;-77
2023/04/25 02:16:38;;;;;;;7.68;6.82;;;9.10;99.90;;;;;;5073833;28;20025;-77
2023/04/25 02:19:04;;;;;;;12.32;8.07;;;9.10;99.90;;;;;;5072688;28;20020;-77
2023/04/25 02:21:30;;;;;;;10.05;7.32;;;9.00;99.90;;;;;;5073833;28;20135;-77
2023/04/25 02:23:56;;;;;;;9.13;7.65;;;9.00;99.90;;;;;;5073756;28;20048;-76
2023/04/25 02:26:23;;;;;;;11.00;7.72;;;8.90;99.90;;;;;;5072392;28;20031;-77
2023/04/25 02:28:49;;;;;;;10.38;7.38;;;8.90;99.90;;;;;;5073605;28;20023;-77
2023/04/25 02:31:15;;;;;;;9.10;8.00;;;8.90;99.90;;;;;;5073698;28;20027;-76
2023/04/25 02:33:41;;;;;;;11.05;8.65;;;8.90;99.90;;;;;;5073394;28;20040;-76
2023/04/25 02:36:07;;;;;;;11.63;8.38;;;8.80;99.90;;;;;;5072445;28;20017;-76
2023/04/25 02:38:33;;;;;;;8.35;7.18;;;8.80;99.90;;;;;;5073511;28;20025;-77
2023/04/25 02:40:59;;;;;;;13.45;9.68;;;8.70;99.90;;;;;;5073603;28;20035;-76
2023/04/25 02:43:24;;;;;;;8.80;7.60;;;8.70;99.90;;;;;;5073577;28;20100;-77
2023/04/25 02:45:50;;;;;;;13.68;8.13;;;8.70;99.90;;;;;;5072718;28;20091;-77
2023/04/25 02:48:16;;;;;;;12.85;8.50;;;8.80;99.90;;;;;;5073635;28;20104;-76
2023/04/25 02:50:42;;;;;;;12.70;8.38;;;8.70;99.90;;;;;;5072232;28;20017;-76
2023/04/25 02:53:07;;;;;;;14.80;8.65;;;8.70;99.90;;;;;;5073342;28;20028;-77
2023/04/25 02:55:33;;;;;;;9.98;8.18;;;8.70;99.90;;;;;;5073405;28;20162;-76
2023/04/25 02:57:58;;;;;;;12.55;9.20;;;8.60;99.90;;;;;;5073308;28;20064;-77
2023/04/25 03:00:24;;;;;;;12.13;9.35;;;8.60;99.90;;;;;;5072032;28;20032;-76
2023/04/25 03:02:50;;;;;;;14.68;9.38;;;8.60;99.90;;;;;;5072076;28;20021;-76
2023/04/25 03:05:17;;;;;;;11.45;8.70;;;8.60;99.90;;;;;;5073496;28;20427;-77
2023/04/25 03:07:43;;;;;;;10.68;9.27;;;8.50;99.90;;;;;;5073233;28;20103;-76
2023/04/25 03:10:10;;;;;;;9.45;7.47;;;8.50;99.90;;;;;;5073285;28;20416;-77
2023/04/25 03:12:36;;;;;;;9.45;7.68;;;8.40;99.90;;;;;;5073240;28;20116;-76
2023/04/25 03:15:02;;;;;;;8.98;7.80;;;8.40;99.90;;;;;;5073219;28;20052;-77
2023/04/25 03:17:27;;;;;;;10.02;7.85;;;8.30;99.90;;;;;;5073170;28;20466;-77
2023/04/25 03:19:53;;;;;;;12.15;7.63;;;8.40;99.90;;;;;;5073046;28;20033;-77
2023/04/25 03:22:19;;;;;;;9.98;8.07;;;8.30;99.90;;;;;;5073088;28;20100;-76
2023/04/25 03:24:44;;;;;;;10.77;8.77;;;8.30;99.90;;;;;;5071928;28;20048;-77
2023/04/25 03:27:10;;;;;;;10.90;8.30;;;8.30;99.90;;;;;;5071837;28;20382;-76
2023/04/25 03:29:36;;;;;;;12.50;9.27;;;8.30;99.90;;;;;;5072983;28;20065;-76
2023/04/25 03:32:01;;;;;;;13.38;10.57;;;8.40;99.90;;;;;;5072803;28;20029;-76
2023/04/25 03:34:27;;;;;;;17.00;10.32;;;8.40;99.90;;;;;;5071774;28;20119;-76
2023/04/25 03:36:53;;;;;;;15.68;10.88;;;8.40;99.90;;;;;;5071550;28;20029;-76
2023/04/25 03:39:19;;;;;;;12.35;9.55;;;8.30;99.90;;;;;;5072913;28;20031;-76
2023/04/25 03:41:44;;;;;;;16.45;11.65;;;8.30;99.90;;;;;;5072749;28;20033;-77
2023/04/25 03:44:10;;;;;;;12.52;9.50;;;8.30;99.90;;;;;;5071576;28;20021;-76
2023/04/25 03:46:35;;;;;;;12.27;9.98;;;8.20;99.90;;;;;;5071613;28;20056;-77
2023/04/25 03:49:01;;;;;;;14.52;9.63;;;8.20;99.90;;;;;;5072481;28;20466;-77
2023/04/25 03:51:27;;;;;;;11.80;9.18;;;8.20;99.90;;;;;;5071528;28;20075;-77
2023/04/25 03:53:52;;;;;;;16.60;11.60;;;8.20;99.90;;;;;;5071471;28;20033;-77
2023/04/25 03:56:18;;;;;;;19.52;11.80;;;8.20;99.90;;;;;;5074614;28;20424;-76
2023/04/25 03:58:44;;;;;;;19.25;12.75;;;8.20;99.90;;;;;;5076370;28;20021;-77
2023/04/25 04:01:10;;;;;;;16.00;11.60;;;8.30;99.90;;;;;;5074977;28;20115;-76
2023/04/25 04:03:36;;;;;;;25.17;14.70;;;8.30;99.90;;;;;;5074962;28;20028;-77
2023/04/25 04:06:06;;;;;;;15.80;10.48;;;8.30;99.90;;;;;;5075086;28;20207;-77
2023/04/25 04:08:32;;;;;;;13.38;9.77;;;8.20;99.90;;;;;;5074463;28;20029;-76
2023/04/25 04:10:58;;;;;;;13.20;9.38;;;8.20;99.90;;;;;;5076422;28;20055;-76
2023/04/25 04:13:26;;;;;;;16.05;11.93;;;8.20;99.90;;;;;;5075099;28;20537;-77
2023/04/25 04:15:52;;;;;;;12.32;9.25;;;8.30;99.90;;;;;;5076036;28;20428;-77
2023/04/25 04:18:18;;;;;;;16.75;10.85;;;8.20;99.90;;;;;;5074912;28;20111;-76
2023/04/25 04:20:43;;;;;;;14.98;9.93;;;8.20;99.90;;;;;;5076074;28;20036;-76
2023/04/25 04:23:09;;;;;;;14.05;10.68;;;8.20;99.90;;;;;;5074865;28;20592;-76
2023/04/25 04:25:35;;;;;;;26.95;16.17;;;8.20;99.90;;;;;;5075924;28;20028;-77
2023/04/25 04:28:01;;;;;;;14.43;9.48;;;8.20;99.90;;;;;;5076102;28;20021;-76
2023/04/25 04:30:30;;;;;;;11.80;9.18;;;8.10;99.90;;;;;;5076089;28;20029;-76
2023/04/25 04:32:56;;;;;;;11.23;8.73;;;8.10;99.90;;;;;;5074459;28;20131;-76
2023/04/25 04:35:23;;;;;;;10.25;7.80;;;8.10;99.90;;;;;;5074641;28;20158;-77
2023/04/25 04:37:50;;;;;;;13.07;9.20;;;8.00;99.90;;;;;;5074529;28;20028;-76
2023/04/25 04:40:16;;;;;;;10.00;7.55;;;8.00;99.90;;;;;;5075777;28;20033;-77
2023/04/25 04:42:45;;;;;;;9.50;7.38;;;8.00;99.90;;;;;;5074432;28;20031;-76
2023/04/25 04:45:12;;;;;;;8.65;7.47;;;8.00;99.90;;;;;;5074495;28;20028;-76
2023/04/25 04:47:40;;;;;;;9.65;7.13;;;7.90;99.90;;;;;;5075525;28;20052;-76
2023/04/25 04:50:10;;;;;;;6.95;5.90;;;7.90;99.90;;;;;;5074351;28;20012;-76
2023/04/25 04:52:36;;;;;;;8.63;6.55;;;7.80;99.90;;;;;;5075545;28;20021;-77
2023/04/25 04:55:03;;;;;;;6.75;5.90;;;7.80;99.90;;;;;;5075548;28;20016;-77
2023/04/25 04:57:29;;;;;;;5.95;5.30;;;7.70;99.90;;;;;;5074136;28;20021;-76
2023/04/25 04:59:55;;;;;;;7.32;5.63;;;7.80;99.90;;;;;;5064485;28;20017;-76
2023/04/25 05:02:21;;;;;;;7.05;4.85;;;7.80;99.90;;;;;;5054504;28;20021;-76
2023/04/25 05:04:46;;;;;;;7.47;6.07;;;7.70;99.90;;;;;;5054989;28;20017;-76
2023/04/25 05:07:12;;;;;;;8.02;6.50;;;7.80;99.90;;;;;;5054176;28;20024;-76
2023/04/25 05:09:38;;;;;;;9.50;7.05;;;7.80;99.90;;;;;;5053714;28;20390;-77
2023/04/25 05:12:04;;;;;;;8.13;6.53;;;7.80;99.90;;;;;;5053603;28;20013;-76
2023/04/25 05:14:30;;;;;;;8.80;5.97;;;7.80;99.90;;;;;;5054936;28;20029;-75
2023/04/25 05:16:55;;;;;;;6.30;5.15;;;7.80;99.90;;;;;;5054147;28;20131;-75
2023/04/25 05:19:21;;;;;;;8.50;6.13;;;7.70;99.90;;;;;;5054730;28;20048;-75
2023/04/25 05:21:47;;;;;;;15.43;8.95;;;7.80;99.90;;;;;;5054471;28;20036;-75
2023/04/25 05:24:12;;;;;;;9.40;6.03;;;7.80;99.90;;;;;;5053916;28;20017;-76
2023/04/25 05:26:38;;;;;;;8.63;6.13;;;7.80;99.90;;;;;;5051988;28;20025;-76
2023/04/25 05:29:05;;;;;;;7.45;6.25;;;7.70;99.90;;;;;;5052049;28;20108;-76
2023/04/25 05:31:31;;;;;;;7.40;5.38;;;7.70;99.90;;;;;;5052818;28;20083;-76
2023/04/25 05:33:56;;;;;;;5.25;4.75;;;7.70;99.90;;;;;;5052087;28;20395;-76
2023/04/25 05:36:22;;;;;;;6.13;4.85;;;7.70;99.90;;;;;;5053329;28;20051;-76
2023/04/25 05:38:48;;;;;;;5.85;5.22;;;7.60;99.90;;;;;;5053461;28;20091;-76
2023/04/25 05:41:14;;;;;;;9.27;6.20;;;7.60;99.90;;;;;;5053220;28;20036;-76
2023/04/25 05:43:44;;;;;;;6.20;4.13;;;7.60;99.90;;;;;;5053468;28;20391;-76
2023/04/25 05:46:10;;;;;;;6.80;5.32;;;7.60;99.90;;;;;;5072418;28;20013;-76
2023/04/25 05:48:36;;;;;;;5.82;4.82;;;7.60;99.90;;;;;;5071910;28;20044;-76
2023/04/25 05:51:01;;;;;;;7.78;5.93;;;7.60;99.90;;;;;;5072550;28;20031;-75
2023/04/25 05:53:27;;;;;;;6.60;5.47;;;7.60;99.90;;;;;;5073141;28;20033;-77
2023/04/25 05:55:53;;;;;;;6.57;5.15;;;7.60;99.90;;;;;;5073312;28;20078;-75
2023/04/25 05:58:18;;;;;;;6.80;5.25;;;7.60;99.90;;;;;;5073280;28;20037;-76
2023/04/25 06:00:44;;;;;;;7.53;5.82;;;7.60;99.90;;;;;;5072170;28;20036;-76
2023/04/25 06:03:10;;;;;;;7.30;5.03;;;7.60;99.90;;;;;;5071405;28;20116;-77
2023/04/25 06:05:36;;;;;;;8.00;5.63;;;7.70;99.90;;;;;;5071563;28;20031;-76
2023/04/25 06:08:01;;;;;;;8.43;5.88;;;7.60;99.90;;;;;;5072802;28;20029;-76
2023/04/25 06:10:27;;;;;;;7.68;5.70;;;7.70;99.90;;;;;;5073436;28;20381;-76
2023/04/25 06:12:53;;;;;;;8.52;6.30;;;7.70;99.90;;;;;;5071411;28;20040;-76
2023/04/25 06:15:18;;;;;;;7.50;5.32;;;7.80;99.90;;;;;;5071793;28;20028;-76
2023/04/25 06:17:44;;;;;;;8.02;5.95;;;7.90;99.90;;;;;;5070415;28;20047;-76
2023/04/25 06:20:10;;;;;;;7.03;6.00;;;7.80;99.90;;;;;;5059480;28;20033;-77
2023/04/25 06:22:35;;;;;;;8.82;6.63;;;8.00;99.90;;;;;;5071324;28;20025;-76
2023/04/25 06:25:03;;;;;;;8.60;5.57;;;8.00;99.90;;;;;;5072385;28;20040;-76
2023/04/25 06:27:29;;;;;;;9.02;5.50;;;8.10;99.90;;;;;;5058548;28;20032;-76
2023/04/25 06:29:55;;;;;;;8.27;5.65;;;8.00;99.90;;;;;;5072587;28;20040;-75
2023/04/25 06:32:20;;;;;;;6.65;5.85;;;7.80;99.90;;;;;;5072074;28;20117;-75
2023/04/25 06:34:46;;;;;;;7.40;5.55;;;7.90;99.90;;;;;;5071002;28;20481;-75
2023/04/25 06:37:11;;;;;;;5.72;4.90;;;7.90;99.90;;;;;;5071295;28;20029;-75
2023/04/25 06:39:37;;;;;;;7.22;5.45;;;7.90;99.90;;;;;;5071408;28;20123;-76
2023/04/25 06:42:03;;;;;;;7.88;6.32;;;7.90;99.90;;;;;;5071949;28;20020;-75
2023/04/25 06:44:29;;;;;;;9.18;5.85;;;7.80;99.90;;;;;;5081843;28;20028;-75
2023/04/25 06:46:55;;;;;;;6.95;5.32;;;7.80;99.90;;;;;;5092587;28;20012;-75
2023/04/25 06:49:20;;;;;;;8.07;5.97;;;7.70;99.90;;;;;;5089654;28;20044;-76
2023/04/25 06:51:46;;;;;;;7.68;5.45;;;7.60;99.90;;;;;;5090667;28;20027;-76
2023/04/25 06:54:11;;;;;;;9.02;6.28;;;7.70;99.90;;;;;;5090166;28;20036;-76
2023/04/25 06:56:37;;;;;;;7.25;5.35;;;7.70;99.90;;;;;;5093020;28;20055;-76
2023/04/25 06:59:03;;;;;;;8.57;5.80;;;7.60;99.90;;;;;;5092878;28;20036;-75
2023/04/25 07:01:28;;;;;;;9.02;6.47;;;7.50;99.90;;;;;;5090621;28;20384;-76
2023/04/25 07:03:54;;;;;;;10.43;5.60;;;7.70;99.90;;;;;;5067037;28;20401;-76
2023/04/25 07:06:20;;;;;;;8.75;6.15;;;7.70;99.90;;;;;;5068503;28;20055;-76
2023/04/25 07:08:46;;;;;;;7.78;5.82;;;7.80;99.90;;;;;;5068107;28;20068;-75
2023/04/25 07:11:11;;;;;;;9.52;5.80;;;7.80;99.90;;;;;;5066469;28;20059;-76
2023/04/25 07:13:37;;;;;;;9.88;6.05;;;7.70;99.90;;;;;;5063764;28;20040;-76
2023/04/25 07:16:03;;;;;;;11.70;6.28;;;7.80;99.90;;;;;;5065260;28;20055;-76
2023/04/25 07:18:28;;;;;;;8.48;6.47;;;7.80;99.90;;;;;;5066660;28;20126;-77
2023/04/25 07:20:54;;;;;;;9.00;6.40;;;7.90;99.90;;;;;;5068995;28;20036;-77
2023/04/25 07:23:20;;;;;;;7.18;5.50;;;7.90;99.90;;;;;;5072100;28;20095;-76
2023/04/25 07:25:46;;;;;;;9.00;6.18;;;7.90;99.90;;;;;;5070872;28;20032;-76
2023/04/25 07:28:12;;;;;;;8.48;6.18;;;7.70;99.90;;;;;;5066336;28;20025;-76
2023/04/25 07:30:37;;;;;;;8.40;6.13;;;7.80;99.90;;;;;;5068646;28;20094;-76
2023/04/25 07:33:03;;;;;;;8.55;6.07;;;7.90;99.90;;;;;;5072624;28;20044;-76
2023/04/25 07:35:28;;;;;;;7.57;5.65;;;8.00;99.90;;;;;;5073900;28;20106;-77
2023/04/25 07:37:55;;;;;;;7.38;6.15;;;8.00;99.90;;;;;;5074591;28;20478;-77
2023/04/25 07:40:20;;;;;;;9.43;6.57;;;8.20;99.90;;;;;;5075826;28;20055;-77
2023/04/25 07:42:46;;;;;;;13.80;7.82;;;8.30;99.90;;;;;;5074974;28;20021;-76
2023/04/25 07:45:11;;;;;;;10.50;6.10;;;8.30;99.90;;;;;;5073182;28;20504;-77
2023/04/25 07:47:38;;;;;;;10.75;6.80;;;8.20;99.90;;;;;;5072765;28;20032;-76
2023/04/25 07:50:04;;;;;;;8.82;6.63;;;8.20;99.90;;;;;;5073499;28;20052;-77
2023/04/25 07:52:32;;;;;;;8.73;5.93;;;8.30;99.90;;;;;;5072955;28;20021;-77
2023/04/25 07:54:58;;;;;;;8.23;6.22;;;8.30;99.90;;;;;;5074180;28;20032;-77
2023/04/25 07:57:24;;;;;;;6.30;5.10;;;8.30;99.90;;;;;;5074894;28;20980;-77
2023/04/25 07:59:49;;;;;;;8.80;6.07;;;8.30;99.90;;;;;;5073776;28;20468;-77
2023/04/25 08:02:15;;;;;;;7.80;6.50;;;8.40;99.90;;;;;;5073479;28;20470;-77
2023/04/25 08:04:41;;;;;;;7.55;6.55;;;8.30;99.90;;;;;;5073778;28;20033;-76
2023/04/25 08:07:06;;;;;;;8.63;6.47;;;8.20;99.90;;;;;;5075538;28;20025;-77
2023/04/25 08:09:35;;;;;;;8.27;6.63;;;8.20;99.90;;;;;;5073836;28;20098;-77
2023/04/25 08:12:01;;;;;;;8.38;6.70;;;8.30;99.90;;;;;;5075025;28;20016;-77
2023/04/25 08:14:28;;;;;;;8.48;6.75;;;8.20;99.90;;;;;;5074808;28;20032;-77
2023/04/25 08:16:54;;;;;;;7.55;5.88;;;8.30;99.90;;;;;;5075077;28;20024;-77
2023/04/25 08:19:20;;;;;;;9.68;6.97;;;8.50;99.90;;;;;;5073932;28;20017;-77
2023/04/25 08:21:45;;;;;;;7.10;6.00;;;8.60;99.90;;;;;;5074981;28;20072;-76
2023/04/25 08:24:11;;;;;;;10.32;6.18;;;8.60;99.90;;;;;;5073782;28;20478;-76
2023/04/25 08:26:38;;;;;;;8.32;6.43;;;8.50;99.90;;;;;;5073078;28;20049;-76
2023/04/25 08:29:04;;;;;;;9.27;6.55;;;8.60;99.90;;;;;;5072260;28;20021;-77
2023/04/25 08:31:30;;;;;;;8.60;6.93;;;8.70;99.90;;;;;;5073209;28;20039;-77
2023/04/25 08:33:55;;;;;;;7.13;6.45;;;8.80;99.90;;;;;;5072714;28;20398;-76
2023/04/25 08:36:21;;;;;;;6.78;5.95;;;8.60;99.90;;;;;;5074372;28;20558;-77
2023/04/25 08:38:47;;;;;;;7.68;6.55;;;8.50;99.90;;;;;;5073427;28;20020;-76
2023/04/25 08:41:13;;;;;;;6.65;5.90;;;8.60;99.90;;;;;;5072930;28;20048;-76
2023/04/25 08:43:42;;;;;;;6.60;4.70;;;8.60;99.90;;;;;;5073430;28;20028;-76
2023/04/25 08:46:08;;;;;;;5.75;5.25;;;8.50;99.90;;;;;;5073911;28;20402;-76
2023/04/25 08:48:34;;;;;;;8.15;5.85;;;8.60;99.90;;;;;;5073812;28;20070;-76
2023/04/25 08:51:06;;;;;;;5.97;5.20;;;8.60;99.90;;;;;;5074225;28;20047;-76
2023/04/25 08:53:36;;;;;;;7.60;6.00;;;8.70;99.90;;;;;;5070285;28;20017;-77
2023/04/25 08:56:02;;;;;;;7.72;6.07;;;8.80;99.90;;;;;;5072856;28;20533;-77
2023/04/25 08:58:29;;;;;;;8.75;6.63;;;8.90;99.90;;;;;;5072251;28;20021;-77
2023/04/25 09:00:55;;;;;;;8.60;6.68;;;9.10;99.90;;;;;;5072807;28;20492;-76
2023/04/25 09:03:20;;;;;;;7.50;6.28;;;9.00;99.90;;;;;;5071942;28;20029;-76
2023/04/25 09:05:46;;;;;;;8.48;6.75;;;9.10;99.90;;;;;;5074141;28;20041;-77
2023/04/25 09:08:12;;;;;;;9.27;6.35;;;9.20;99.90;;;;;;5073918;28;20115;-76
2023/04/25 09:10:38;;;;;;;10.40;6.65;;;9.00;99.90;;;;;;5073680;28;20496;-77
2023/04/25 09:13:05;;;;;;;7.95;6.30;;;9.10;99.90;;;;;;5072596;28;20035;-77
2023/04/25 09:15:32;;;;;;;12.07;7.80;;;9.10;99.90;;;;;;5073747;28;20490;-77
2023/04/25 09:17:58;;;;;;;8.57;7.55;;;9.20;99.90;;;;;;5073418;28;20025;-77
2023/04/25 09:20:24;;;;;;;7.95;6.28;;;9.20;99.90;;;;;;5073454;28;20063;-76
2023/04/25 09:23:05;;;;;;;7.88;6.82;;;9.10;99.90;;;;;;5073790;28;20067;-76
2023/04/25 09:25:36;;;;;;;7.85;6.38;;;9.10;99.90;;;;;;5072355;28;20402;-77
2023/04/25 09:28:05;;;;;;;7.78;6.40;;;9.20;99.90;;;;;;5073296;28;20024;-76
2023/04/25 09:30:32;;;;;;;8.38;6.93;;;9.20;99.90;;;;;;5073459;28;20409;-77
2023/04/25 09:33:05;;;;;;;7.90;6.85;;;9.10;99.90;;;;;;5072930;28;20048;-77
2023/04/25 09:35:36;;;;;;;7.10;6.40;;;9.20;99.90;;;;;;5085057;28;20370;-78
2023/04/25 09:38:11;;;;;;;8.32;6.68;;;9.10;99.90;;;;;;5092545;28;20024;-77
2023/04/25 09:40:41;;;;;;;11.57;5.47;;;9.10;99.90;;;;;;5092439;28;20044;-77
2023/04/25 09:43:25;;;;;;;7.43;5.47;;;9.10;99.90;;;;;;5092426;28;20020;-78
2023/04/25 09:45:53;;;;;;;6.95;5.80;;;8.90;99.90;;;;;;5091111;28;20047;-77
2023/04/25 09:48:20;;;;;;;6.60;5.97;;;8.90;99.90;;;;;;5070988;28;20030;-76
2023/04/25 09:51:06;;;;;;;6.70;5.18;;;8.90;99.90;;;;;;5069193;28;20032;-77
2023/04/25 09:53:37;;;;;;;5.72;4.70;;;9.10;99.90;;;;;;5071517;28;20021;-78
2023/04/25 09:56:08;;;;;;;6.88;5.38;;;9.00;99.90;;;;;;5080801;28;20397;-78
2023/04/25 09:58:35;;;;;;;8.52;4.70;;;9.10;99.90;;;;;;5069601;28;20060;-78
2023/04/25 10:01:03;;;;;;;4.97;4.00;;;9.20;99.90;;;;;;5071574;28;20071;-78
2023/04/25 10:03:46;;;;;;;5.38;3.90;;;9.20;98.90;;;;;;5071805;28;20028;-77
2023/04/25 10:06:16;;;;;;;5.65;5.15;;;9.30;99.20;;;;;;5070081;28;20044;-77
2023/04/25 10:08:43;;;;;;;5.40;4.90;;;9.30;94.40;;;;;;5071526;28;20074;-76
2023/04/25 10:11:09;;;;;;;4.25;3.85;;;9.40;96.80;;;;;;5067371;28;20059;-77
2023/04/25 10:13:36;;;;;;;4.60;4.15;;;9.50;96.10;;;;;;5070861;28;20020;-77
2023/04/25 10:16:04;;;;;;;4.60;4.10;;;9.70;98.00;;;;;;5071076;28;20119;-77
2023/04/25 10:18:31;;;;;;;6.90;4.55;;;9.70;91.30;;;;;;5069238;28;20594;-77
2023/04/25 10:21:00;;;;;;;5.32;4.22;;;9.80;91.90;;;;;;5071964;28;20040;-77
2023/04/25 10:23:27;;;;;;;6.30;4.50;;;9.80;82.20;;;;;;5071376;28;20016;-77
2023/04/25 10:25:53;;;;;;;4.28;3.88;;;10.00;82.60;;;;;;5071984;28;20032;-77
2023/04/25 10:28:19;;;;;;;5.88;5.05;;;10.10;84.40;;;;;;5071133;28;20032;-78
2023/04/25 10:30:59;;;;;;;6.93;4.40;;;10.10;84.80;;;;;;5072575;28;20016;-77
2023/04/25 10:33:39;;;;;;;5.95;4.35;;;10.10;82.00;;;;;;5066301;28;20547;-78
2023/04/25 10:36:18;;;;;;;4.65;4.05;;;10.20;81.30;;;;;;5070945;28;20032;-79
2023/04/25 10:38:45;;;;;;;4.47;4.03;;;10.30;82.80;;;;;;5072639;28;20027;-77
2023/04/25 10:41:11;;;;;;;4.10;3.70;;;10.30;80.50;;;;;;5070754;28;20040;-78
2023/04/25 10:43:41;;;;;;;5.35;3.92;;;10.40;79.60;;;;;;5072537;28;20103;-77
2023/04/25 10:46:13;;;;;;;4.00;3.63;;;10.40;77.00;;;;;;5070599;28;20036;-77
2023/04/25 10:48:50;;;;;;;5.30;3.83;;;10.60;75.00;;;;;;5072272;28;20029;-77
2023/04/25 10:51:18;;;;;;;6.00;4.30;;;10.50;72.70;;;;;;5072024;28;20454;-77
2023/04/25 10:53:45;;;;;;;5.70;3.78;;;10.60;74.40;;;;;;5072812;28;20035;-77
2023/04/25 10:56:16;;;;;;;3.30;3.00;;;10.70;70.80;;;;;;5071145;28;20028;-77
2023/04/25 10:58:44;;;;;;;5.30;3.00;;;10.60;68.70;;;;;;5061876;28;20475;-78
2023/04/25 11:01:10;;;;;;;3.42;3.13;;;10.70;68.70;;;;;;5052817;28;20033;-78
2023/04/25 11:03:45;;;;;;;5.28;3.72;;;10.50;67.10;;;;;;5052886;28;20406;-78
2023/04/25 11:06:37;;;;;;;4.32;3.67;;;10.60;68.10;;;;;;5050536;28;20025;-77
2023/04/25 11:09:09;;;;;;;4.10;3.70;;;10.60;67.70;;;;;;5052848;28;20032;-78
2023/04/25 11:11:36;;;;;;;8.15;4.07;;;10.60;67.40;;;;;;5051669;28;20418;-78
2023/04/25 11:14:02;;;;;;;5.38;3.40;;;10.50;68.00;;;;;;5050817;28;20032;-78
2023/04/25 11:16:28;;;;;;;4.05;3.63;;;10.60;67.70;;;;;;5052668;28;20387;-78
2023/04/25 11:18:56;;;;;;;5.50;3.88;;;10.60;68.50;;;;;;5052484;28;20043;-78
2023/04/25 11:21:22;;;;;;;4.30;3.90;;;10.60;67.10;;;;;;5058528;28;20036;-78
2023/04/25 11:23:48;;;;;;;5.07;4.38;;;10.60;67.20;;;;;;5071474;28;20474;-78
2023/04/25 11:26:14;;;;;;;5.30;3.83;;;10.80;68.70;;;;;;5071779;28;20029;-77
2023/04/25 11:28:40;;;;;;;5.50;3.10;;;10.70;67.30;;;;;;5068681;28;20030;-77
2023/04/25 11:31:06;;;;;;;5.90;4.38;;;10.90;67.80;;;;;;5070983;28;20025;-77
2023/04/25 11:33:32;;;;;;;5.13;3.00;;;11.00;67.30;;;;;;5070528;28;20051;-77
2023/04/25 11:35:58;;;;;;;3.40;3.13;;;11.00;64.60;;;;;;5072282;28;20028;-77
2023/04/25 11:38:25;;;;;;;5.70;3.17;;;10.80;63.50;;;;;;5071499;28;20080;-77
2023/04/25 11:40:53;;;;;;;3.17;2.90;;;11.10;64.40;;;;;;5072616;28;20512;-77
2023/04/25 11:43:21;;;;;;;3.40;2.50;;;11.10;63.40;;;;;;5071328;28;20466;-77
2023/04/25 11:45:51;;;;;;;3.90;2.75;;;11.00;63.50;;;;;;5071365;28;20470;-78
2023/04/25 11:48:17;;;;;;;5.30;2.95;;;10.90;63.20;;;;;;5072644;28;20020;-77
2023/04/25 11:50:43;;;;;;;3.58;2.75;;;10.80;62.30;;;;;;5072052;28;20537;-77
2023/04/25 11:53:08;;;;;;;3.78;3.03;;;10.70;62.80;;;;;;5071296;28;20146;-77
2023/04/25 11:55:35;;;;;;;2.70;2.50;;;10.60;62.20;;;;;;5071277;28;20116;-78
2023/04/25 11:58:02;;;;;;;18.52;6.90;;;10.60;63.70;;;;;;5071140;28;20029;-77
2023/04/25 12:00:27;;;;;;;3.80;2.78;;;10.70;64.50;;;;;;5071085;28;20481;-77
2023/04/25 12:02:57;;;;;;;4.32;2.80;;;10.60;63.20;;;;;;5072285;28;20079;-78
2023/04/25 12:05:30;;;;;;;2.80;2.55;;;10.50;62.60;;;;;;5070995;28;20047;-78
2023/04/25 12:07:56;;;;;;;;;;;10.50;64.30;;;;;;5071233;28;20058;-78
2023/04/25 12:10:23;;;;;;;3.78;2.72;;;10.50;63.90;;;;;;5072614;28;20255;-78
2023/04/25 12:12:49;;;;;;;7.75;3.72;;;10.40;62.90;;;;;;5072222;28;20551;-78
2023/04/25 12:15:23;;;;;;;4.75;2.97;;;10.40;63.20;;;;;;5070364;28;20046;-78
2023/04/25 12:17:51;;;;;;;3.30;2.67;;;10.40;63.00;;;;;;5071425;28;20474;-78
2023/04/25 12:20:18;;;;;;;4.57;2.97;;;10.40;63.30;;;;;;5073224;28;20033;-78
2023/04/25 12:22:46;;;;;;;3.22;2.60;;;10.40;63.90;;;;;;5072510;28;20111;-78
2023/04/25 12:25:13;;;;;;;3.35;2.85;;;10.40;64.00;;;;;;5072713;28;20017;-78
2023/04/25 12:27:43;;;;;;;3.45;2.88;;;10.30;64.30;;;;;;5073584;28;20025;-78
2023/04/25 12:30:10;;;;;;;4.47;3.00;;;10.30;64.70;;;;;;5074133;28;20131;-78
2023/04/25 12:32:37;;;;;;;3.53;2.47;;;10.20;63.90;;;;;;5075460;28;20063;-77
2023/04/25 12:35:04;;;;;;;4.90;3.00;;;10.30;64.70;;;;;;5075169;28;20039;-78
2023/04/25 12:37:30;;;;;;;5.25;3.17;;;10.20;64.10;;;;;;5074195;28;20029;-78
2023/04/25 12:39:56;;;;;;;4.47;3.45;;;10.30;65.20;;;;;;5074206;28;20021;-78
2023/04/25 12:42:21;;;;;;;4.20;3.40;;;10.20;65.40;;;;;;5074215;28;20364;-78
2023/04/25 12:44:47;;;;;;;4.38;3.25;;;10.20;65.80;;;;;;5075435;28;20024;-79
2023/04/25 12:47:13;;;;;;;4.70;3.70;;;10.10;65.50;;;;;;5075181;28;20071;-78
2023/04/25 12:49:39;;;;;;;5.68;4.03;;;10.10;66.30;;;;;;5072873;28;20364;-78
2023/04/25 12:52:04;;;;;;;4.07;3.15;;;10.10;66.30;;;;;;5073841;28;20031;-79